sensor_id;sensor_type;location;lat;lon;timestamp;P1;durP1;ratioP1;P2;durP2;ratioP2
68432;SDS011;55412;51.350;17.056;2023-01-04T00:01:08;17.13;;;6.43;;
68432;SDS011;55412;51.350;17.056;2023-01-04T00:03:38;19.60;;;6.38;;
68432;SDS011;55412;51.350;17.056;2023-01-04T00:06:04;18.20;;;6.03;;
68432;SDS011;55412;51.350;17.056;2023-01-04T00:08:32;15.70;;;5.45;;
68432;SDS011;55412;51.350;17.056;2023-01-04T00:10:59;15.88;;;6.60;;
68432;SDS011;55412;51.350;17.056;2023-01-04T00:13:30;18.35;;;6.30;;
68432;SDS011;55412;51.350;17.056;2023-01-04T00:15:57;14.73;;;5.90;;
68432;SDS011;55412;51.350;17.056;2023-01-04T00:18:29;18.13;;;6.23;;
68432;SDS011;55412;51.350;17.056;2023-01-04T00:21:04;16.38;;;6.72;;
68432;SDS011;55412;51.350;17.056;2023-01-04T00:23:32;16.85;;;6.20;;
68432;SDS011;55412;51.350;17.056;2023-01-04T00:25:58;17.58;;;6.55;;
68432;SDS011;55412;51.350;17.056;2023-01-04T00:28:24;18.00;;;6.63;;
68432;SDS011;55412;51.350;17.056;2023-01-04T00:30:50;18.77;;;5.90;;
68432;SDS011;55412;51.350;17.056;2023-01-04T00:33:16;15.05;;;6.57;;
68432;SDS011;55412;51.350;17.056;2023-01-04T00:35:41;18.38;;;6.72;;
68432;SDS011;55412;51.350;17.056;2023-01-04T00:38:08;15.00;;;6.70;;
68432;SDS011;55412;51.350;17.056;2023-01-04T00:40:34;14.85;;;5.43;;
68432;SDS011;55412;51.350;17.056;2023-01-04T00:43:00;17.42;;;6.45;;
68432;SDS011;55412;51.350;17.056;2023-01-04T00:45:26;15.82;;;5.60;;
68432;SDS011;55412;51.350;17.056;2023-01-04T00:47:52;15.20;;;5.80;;
68432;SDS011;55412;51.350;17.056;2023-01-04T00:50:18;16.15;;;5.72;;
68432;SDS011;55412;51.350;17.056;2023-01-04T00:52:44;16.98;;;5.90;;
68432;SDS011;55412;51.350;17.056;2023-01-04T00:55:10;13.50;;;5.00;;
68432;SDS011;55412;51.350;17.056;2023-01-04T00:57:36;14.30;;;5.03;;
68432;SDS011;55412;51.350;17.056;2023-01-04T01:00:02;12.73;;;5.13;;
68432;SDS011;55412;51.350;17.056;2023-01-04T01:02:28;15.13;;;5.38;;
68432;SDS011;55412;51.350;17.056;2023-01-04T01:04:54;13.13;;;5.45;;
68432;SDS011;55412;51.350;17.056;2023-01-04T01:07:20;16.40;;;6.18;;
68432;SDS011;55412;51.350;17.056;2023-01-04T01:09:46;15.63;;;5.60;;
68432;SDS011;55412;51.350;17.056;2023-01-04T01:12:12;13.38;;;5.65;;
68432;SDS011;55412;51.350;17.056;2023-01-04T01:14:38;16.83;;;5.63;;
68432;SDS011;55412;51.350;17.056;2023-01-04T01:17:04;15.95;;;5.97;;
68432;SDS011;55412;51.350;17.056;2023-01-04T01:19:30;20.03;;;7.23;;
68432;SDS011;55412;51.350;17.056;2023-01-04T01:21:56;16.97;;;6.30;;
68432;SDS011;55412;51.350;17.056;2023-01-04T01:24:23;16.50;;;6.03;;
68432;SDS011;55412;51.350;17.056;2023-01-04T01:26:50;17.13;;;6.15;;
68432;SDS011;55412;51.350;17.056;2023-01-04T01:29:16;14.18;;;6.00;;
68432;SDS011;55412;51.350;17.056;2023-01-04T01:31:42;16.00;;;6.43;;
68432;SDS011;55412;51.350;17.056;2023-01-04T01:34:08;14.60;;;6.00;;
68432;SDS011;55412;51.350;17.056;2023-01-04T01:36:35;22.52;;;6.72;;
68432;SDS011;55412;51.350;17.056;2023-01-04T01:39:01;19.15;;;6.55;;
68432;SDS011;55412;51.350;17.056;2023-01-04T01:41:28;16.92;;;5.68;;
68432;SDS011;55412;51.350;17.056;2023-01-04T01:49:16;15.25;;;5.85;;
68432;SDS011;55412;51.350;17.056;2023-01-04T01:51:51;14.88;;;6.30;;
68432;SDS011;55412;51.350;17.056;2023-01-04T01:54:31;14.95;;;5.70;;
68432;SDS011;55412;51.350;17.056;2023-01-04T01:57:05;16.58;;;5.60;;
68432;SDS011;55412;51.350;17.056;2023-01-04T01:59:35;18.67;;;6.73;;
68432;SDS011;55412;51.350;17.056;2023-01-04T02:02:05;18.60;;;7.13;;
68432;SDS011;55412;51.350;17.056;2023-01-04T02:04:31;17.30;;;7.25;;
68432;SDS011;55412;51.350;17.056;2023-01-04T02:06:58;23.00;;;7.55;;
68432;SDS011;55412;51.350;17.056;2023-01-04T02:09:25;17.48;;;7.55;;
68432;SDS011;55412;51.350;17.056;2023-01-04T02:11:51;19.50;;;7.97;;
68432;SDS011;55412;51.350;17.056;2023-01-04T02:14:17;19.73;;;7.70;;
68432;SDS011;55412;51.350;17.056;2023-01-04T02:29:41;23.08;;;8.88;;
68432;SDS011;55412;51.350;17.056;2023-01-04T02:35:19;21.05;;;7.50;;
68432;SDS011;55412;51.350;17.056;2023-01-04T02:40:33;20.15;;;6.80;;
68432;SDS011;55412;51.350;17.056;2023-01-04T02:43:36;17.27;;;6.13;;
68432;SDS011;55412;51.350;17.056;2023-01-04T02:46:50;21.02;;;6.93;;
68432;SDS011;55412;51.350;17.056;2023-01-04T02:49:26;15.18;;;6.35;;
68432;SDS011;55412;51.350;17.056;2023-01-04T02:52:11;16.93;;;6.30;;
68432;SDS011;55412;51.350;17.056;2023-01-04T02:54:37;16.23;;;5.53;;
68432;SDS011;55412;51.350;17.056;2023-01-04T03:08:48;19.45;;;6.65;;
68432;SDS011;55412;51.350;17.056;2023-01-04T03:14:43;22.35;;;8.13;;
68432;SDS011;55412;51.350;17.056;2023-01-04T03:17:24;18.67;;;7.70;;
68432;SDS011;55412;51.350;17.056;2023-01-04T03:20:07;19.60;;;6.87;;
68432;SDS011;55412;51.350;17.056;2023-01-04T03:22:44;20.02;;;7.00;;
68432;SDS011;55412;51.350;17.056;2023-01-04T03:25:42;14.45;;;6.53;;
68432;SDS011;55412;51.350;17.056;2023-01-04T03:28:32;16.88;;;6.25;;
68432;SDS011;55412;51.350;17.056;2023-01-04T03:34:11;15.90;;;6.23;;
68432;SDS011;55412;51.350;17.056;2023-01-04T03:43:08;17.30;;;5.82;;
68432;SDS011;55412;51.350;17.056;2023-01-04T03:46:54;16.73;;;5.80;;
68432;SDS011;55412;51.350;17.056;2023-01-04T03:49:38;13.63;;;5.47;;
68432;SDS011;55412;51.350;17.056;2023-01-04T03:52:10;12.70;;;5.35;;
68432;SDS011;55412;51.350;17.056;2023-01-04T03:54:39;12.13;;;4.95;;
68432;SDS011;55412;51.350;17.056;2023-01-04T03:57:09;14.82;;;4.97;;
68432;SDS011;55412;51.350;17.056;2023-01-04T03:59:38;16.02;;;5.72;;
68432;SDS011;55412;51.350;17.056;2023-01-04T04:02:11;12.47;;;4.40;;
68432;SDS011;55412;51.350;17.056;2023-01-04T04:04:41;12.20;;;5.05;;
68432;SDS011;55412;51.350;17.056;2023-01-04T04:07:25;14.68;;;5.15;;
68432;SDS011;55412;51.350;17.056;2023-01-04T04:10:11;13.05;;;4.43;;
68432;SDS011;55412;51.350;17.056;2023-01-04T04:12:37;14.15;;;4.97;;
68432;SDS011;55412;51.350;17.056;2023-01-04T04:15:03;15.30;;;5.13;;
68432;SDS011;55412;51.350;17.056;2023-01-04T04:17:29;11.88;;;5.28;;
68432;SDS011;55412;51.350;17.056;2023-01-04T04:19:55;15.07;;;4.63;;
68432;SDS011;55412;51.350;17.056;2023-01-04T04:22:21;17.17;;;5.75;;
68432;SDS011;55412;51.350;17.056;2023-01-04T04:24:47;13.98;;;5.75;;
68432;SDS011;55412;51.350;17.056;2023-01-04T04:27:13;14.87;;;5.57;;
68432;SDS011;55412;51.350;17.056;2023-01-04T04:29:39;13.35;;;5.82;;
68432;SDS011;55412;51.350;17.056;2023-01-04T04:32:05;13.82;;;5.47;;
68432;SDS011;55412;51.350;17.056;2023-01-04T04:34:31;13.13;;;5.57;;
68432;SDS011;55412;51.350;17.056;2023-01-04T04:36:57;15.23;;;5.83;;
68432;SDS011;55412;51.350;17.056;2023-01-04T04:39:23;16.20;;;6.50;;
68432;SDS011;55412;51.350;17.056;2023-01-04T04:41:49;13.38;;;5.80;;
68432;SDS011;55412;51.350;17.056;2023-01-04T04:44:17;14.88;;;5.40;;
68432;SDS011;55412;51.350;17.056;2023-01-04T04:46:44;13.13;;;6.03;;
68432;SDS011;55412;51.350;17.056;2023-01-04T04:49:12;14.80;;;5.35;;
68432;SDS011;55412;51.350;17.056;2023-01-04T04:51:39;15.68;;;5.30;;
68432;SDS011;55412;51.350;17.056;2023-01-04T04:54:06;16.33;;;5.60;;
68432;SDS011;55412;51.350;17.056;2023-01-04T04:56:34;14.93;;;4.60;;
68432;SDS011;55412;51.350;17.056;2023-01-04T04:59:04;14.57;;;5.67;;
68432;SDS011;55412;51.350;17.056;2023-01-04T05:01:30;14.93;;;4.28;;
68432;SDS011;55412;51.350;17.056;2023-01-04T05:03:57;14.35;;;5.47;;
68432;SDS011;55412;51.350;17.056;2023-01-04T05:06:23;13.75;;;5.05;;
68432;SDS011;55412;51.350;17.056;2023-01-04T05:08:49;15.38;;;6.10;;
68432;SDS011;55412;51.350;17.056;2023-01-04T05:11:15;13.50;;;4.90;;
68432;SDS011;55412;51.350;17.056;2023-01-04T05:14:01;13.63;;;4.75;;
68432;SDS011;55412;51.350;17.056;2023-01-04T05:16:27;13.27;;;5.18;;
68432;SDS011;55412;51.350;17.056;2023-01-04T05:18:53;13.98;;;5.78;;
68432;SDS011;55412;51.350;17.056;2023-01-04T05:21:19;12.10;;;5.85;;
68432;SDS011;55412;51.350;17.056;2023-01-04T05:23:45;14.23;;;5.90;;
68432;SDS011;55412;51.350;17.056;2023-01-04T05:26:11;12.18;;;5.75;;
68432;SDS011;55412;51.350;17.056;2023-01-04T05:28:37;12.65;;;4.25;;
68432;SDS011;55412;51.350;17.056;2023-01-04T05:31:03;12.80;;;4.40;;
68432;SDS011;55412;51.350;17.056;2023-01-04T05:33:30;12.60;;;4.83;;
68432;SDS011;55412;51.350;17.056;2023-01-04T05:35:58;13.15;;;4.68;;
68432;SDS011;55412;51.350;17.056;2023-01-04T05:38:26;11.98;;;4.80;;
68432;SDS011;55412;51.350;17.056;2023-01-04T05:40:52;11.10;;;4.00;;
68432;SDS011;55412;51.350;17.056;2023-01-04T05:43:19;11.90;;;5.07;;
68432;SDS011;55412;51.350;17.056;2023-01-04T05:45:54;11.40;;;4.50;;
68432;SDS011;55412;51.350;17.056;2023-01-04T05:48:21;10.77;;;4.10;;
68432;SDS011;55412;51.350;17.056;2023-01-04T05:50:49;12.43;;;4.78;;
68432;SDS011;55412;51.350;17.056;2023-01-04T05:53:17;10.77;;;3.95;;
68432;SDS011;55412;51.350;17.056;2023-01-04T05:55:43;13.20;;;4.35;;
68432;SDS011;55412;51.350;17.056;2023-01-04T05:58:12;15.30;;;4.50;;
68432;SDS011;55412;51.350;17.056;2023-01-04T06:00:38;12.13;;;5.32;;
68432;SDS011;55412;51.350;17.056;2023-01-04T06:03:04;13.32;;;4.93;;
68432;SDS011;55412;51.350;17.056;2023-01-04T06:05:30;15.50;;;5.18;;
68432;SDS011;55412;51.350;17.056;2023-01-04T06:07:56;11.98;;;4.63;;
68432;SDS011;55412;51.350;17.056;2023-01-04T06:10:23;12.37;;;5.13;;
68432;SDS011;55412;51.350;17.056;2023-01-04T06:12:49;13.55;;;4.72;;
68432;SDS011;55412;51.350;17.056;2023-01-04T06:15:15;16.08;;;4.55;;
68432;SDS011;55412;51.350;17.056;2023-01-04T06:17:41;14.63;;;4.65;;
68432;SDS011;55412;51.350;17.056;2023-01-04T06:20:10;11.63;;;5.23;;
68432;SDS011;55412;51.350;17.056;2023-01-04T06:22:36;10.95;;;4.53;;
68432;SDS011;55412;51.350;17.056;2023-01-04T06:25:04;12.85;;;4.35;;
68432;SDS011;55412;51.350;17.056;2023-01-04T06:27:31;11.02;;;4.82;;
68432;SDS011;55412;51.350;17.056;2023-01-04T06:29:57;13.98;;;4.65;;
68432;SDS011;55412;51.350;17.056;2023-01-04T06:32:23;10.77;;;4.30;;
68432;SDS011;55412;51.350;17.056;2023-01-04T06:34:49;14.13;;;5.50;;
68432;SDS011;55412;51.350;17.056;2023-01-04T06:37:15;11.65;;;5.38;;
68432;SDS011;55412;51.350;17.056;2023-01-04T06:39:41;13.18;;;4.93;;
68432;SDS011;55412;51.350;17.056;2023-01-04T06:42:08;16.35;;;6.03;;
68432;SDS011;55412;51.350;17.056;2023-01-04T06:44:54;13.23;;;5.23;;
68432;SDS011;55412;51.350;17.056;2023-01-04T06:47:20;14.55;;;5.90;;
68432;SDS011;55412;51.350;17.056;2023-01-04T06:49:46;14.05;;;5.80;;
68432;SDS011;55412;51.350;17.056;2023-01-04T06:52:12;16.98;;;6.70;;
68432;SDS011;55412;51.350;17.056;2023-01-04T06:54:38;14.30;;;5.85;;
68432;SDS011;55412;51.350;17.056;2023-01-04T06:57:04;14.57;;;5.40;;
68432;SDS011;55412;51.350;17.056;2023-01-04T06:59:30;15.50;;;5.32;;
68432;SDS011;55412;51.350;17.056;2023-01-04T07:01:56;12.63;;;5.55;;
68432;SDS011;55412;51.350;17.056;2023-01-04T07:04:22;16.23;;;6.30;;
68432;SDS011;55412;51.350;17.056;2023-01-04T07:06:48;12.70;;;5.30;;
68432;SDS011;55412;51.350;17.056;2023-01-04T07:09:14;13.85;;;6.18;;
68432;SDS011;55412;51.350;17.056;2023-01-04T07:11:40;14.05;;;5.93;;
68432;SDS011;55412;51.350;17.056;2023-01-04T07:14:06;14.52;;;5.32;;
68432;SDS011;55412;51.350;17.056;2023-01-04T07:16:32;16.23;;;5.57;;
68432;SDS011;55412;51.350;17.056;2023-01-04T07:18:58;12.35;;;5.07;;
68432;SDS011;55412;51.350;17.056;2023-01-04T07:21:24;12.63;;;5.60;;
68432;SDS011;55412;51.350;17.056;2023-01-04T07:23:50;13.85;;;5.78;;
68432;SDS011;55412;51.350;17.056;2023-01-04T07:26:16;12.77;;;5.97;;
68432;SDS011;55412;51.350;17.056;2023-01-04T07:28:42;14.30;;;5.73;;
68432;SDS011;55412;51.350;17.056;2023-01-04T07:31:27;13.27;;;4.75;;
68432;SDS011;55412;51.350;17.056;2023-01-04T07:33:53;14.07;;;5.05;;
68432;SDS011;55412;51.350;17.056;2023-01-04T07:36:19;13.98;;;6.72;;
68432;SDS011;55412;51.350;17.056;2023-01-04T07:38:45;16.23;;;6.60;;
68432;SDS011;55412;51.350;17.056;2023-01-04T07:41:11;13.10;;;5.07;;
68432;SDS011;55412;51.350;17.056;2023-01-04T07:43:37;15.43;;;6.38;;
68432;SDS011;55412;51.350;17.056;2023-01-04T07:46:03;16.58;;;6.43;;
68432;SDS011;55412;51.350;17.056;2023-01-04T07:48:29;13.27;;;5.15;;
68432;SDS011;55412;51.350;17.056;2023-01-04T07:50:55;13.93;;;5.73;;
68432;SDS011;55412;51.350;17.056;2023-01-04T07:53:21;12.57;;;5.10;;
68432;SDS011;55412;51.350;17.056;2023-01-04T07:55:47;15.50;;;6.53;;
68432;SDS011;55412;51.350;17.056;2023-01-04T07:58:13;14.80;;;6.60;;
68432;SDS011;55412;51.350;17.056;2023-01-04T08:00:39;13.67;;;5.63;;
68432;SDS011;55412;51.350;17.056;2023-01-04T08:03:05;15.27;;;5.80;;
68432;SDS011;55412;51.350;17.056;2023-01-04T08:05:31;16.15;;;6.00;;
68432;SDS011;55412;51.350;17.056;2023-01-04T08:07:58;11.48;;;5.70;;
68432;SDS011;55412;51.350;17.056;2023-01-04T08:10:25;16.08;;;6.15;;
68432;SDS011;55412;51.350;17.056;2023-01-04T08:12:51;14.65;;;6.20;;
68432;SDS011;55412;51.350;17.056;2023-01-04T08:15:17;13.27;;;5.67;;
68432;SDS011;55412;51.350;17.056;2023-01-04T08:17:43;12.40;;;6.35;;
68432;SDS011;55412;51.350;17.056;2023-01-04T08:20:09;12.77;;;5.57;;
68432;SDS011;55412;51.350;17.056;2023-01-04T08:22:35;12.70;;;5.78;;
68432;SDS011;55412;51.350;17.056;2023-01-04T08:25:01;11.73;;;5.13;;
68432;SDS011;55412;51.350;17.056;2023-01-04T08:27:30;14.60;;;4.85;;
68432;SDS011;55412;51.350;17.056;2023-01-04T08:29:57;12.55;;;5.15;;
68432;SDS011;55412;51.350;17.056;2023-01-04T08:32:23;10.80;;;4.60;;
68432;SDS011;55412;51.350;17.056;2023-01-04T08:34:49;13.07;;;5.43;;
68432;SDS011;55412;51.350;17.056;2023-01-04T08:37:15;10.93;;;4.63;;
68432;SDS011;55412;51.350;17.056;2023-01-04T08:39:41;10.57;;;4.20;;
68432;SDS011;55412;51.350;17.056;2023-01-04T08:42:07;10.50;;;4.50;;
68432;SDS011;55412;51.350;17.056;2023-01-04T08:44:33;13.85;;;5.15;;
68432;SDS011;55412;51.350;17.056;2023-01-04T08:46:59;10.15;;;4.68;;
68432;SDS011;55412;51.350;17.056;2023-01-04T08:49:25;13.53;;;5.03;;
68432;SDS011;55412;51.350;17.056;2023-01-04T08:51:51;11.93;;;4.60;;
68432;SDS011;55412;51.350;17.056;2023-01-04T08:54:17;13.45;;;5.43;;
68432;SDS011;55412;51.350;17.056;2023-01-04T08:56:43;13.40;;;5.43;;
68432;SDS011;55412;51.350;17.056;2023-01-04T08:59:09;12.20;;;5.03;;
68432;SDS011;55412;51.350;17.056;2023-01-04T09:01:37;14.45;;;4.95;;
68432;SDS011;55412;51.350;17.056;2023-01-04T09:04:04;12.18;;;5.63;;
68432;SDS011;55412;51.350;17.056;2023-01-04T09:06:30;9.98;;;4.43;;
68432;SDS011;55412;51.350;17.056;2023-01-04T09:08:56;16.13;;;6.07;;
68432;SDS011;55412;51.350;17.056;2023-01-04T09:11:23;11.67;;;4.00;;
68432;SDS011;55412;51.350;17.056;2023-01-04T09:13:57;10.52;;;4.63;;
68432;SDS011;55412;51.350;17.056;2023-01-04T09:16:25;10.75;;;4.63;;
68432;SDS011;55412;51.350;17.056;2023-01-04T09:18:51;13.05;;;5.53;;
68432;SDS011;55412;51.350;17.056;2023-01-04T09:21:18;12.70;;;4.63;;
68432;SDS011;55412;51.350;17.056;2023-01-04T09:23:46;9.47;;;4.17;;
68432;SDS011;55412;51.350;17.056;2023-01-04T09:26:16;11.52;;;4.30;;
68432;SDS011;55412;51.350;17.056;2023-01-04T09:28:48;11.82;;;5.35;;
68432;SDS011;55412;51.350;17.056;2023-01-04T09:31:19;12.68;;;5.18;;
68432;SDS011;55412;51.350;17.056;2023-01-04T09:33:47;8.88;;;3.85;;
68432;SDS011;55412;51.350;17.056;2023-01-04T09:36:15;9.50;;;4.20;;
68432;SDS011;55412;51.350;17.056;2023-01-04T09:38:42;13.82;;;4.93;;
68432;SDS011;55412;51.350;17.056;2023-01-04T09:43:55;10.27;;;4.07;;
68432;SDS011;55412;51.350;17.056;2023-01-04T09:46:50;7.82;;;3.65;;
68432;SDS011;55412;51.350;17.056;2023-01-04T09:49:34;9.17;;;3.83;;
68432;SDS011;55412;51.350;17.056;2023-01-04T09:54:37;10.02;;;3.45;;
68432;SDS011;55412;51.350;17.056;2023-01-04T09:57:29;8.82;;;2.80;;
68432;SDS011;55412;51.350;17.056;2023-01-04T10:00:16;10.82;;;3.38;;
68432;SDS011;55412;51.350;17.056;2023-01-04T10:02:55;14.77;;;3.73;;
68432;SDS011;55412;51.350;17.056;2023-01-04T10:05:40;7.85;;;3.25;;
68432;SDS011;55412;51.350;17.056;2023-01-04T10:08:16;12.60;;;3.13;;
68432;SDS011;55412;51.350;17.056;2023-01-04T10:11:51;8.25;;;3.67;;
68432;SDS011;55412;51.350;17.056;2023-01-04T10:26:09;9.23;;;3.00;;
68432;SDS011;55412;51.350;17.056;2023-01-04T10:31:44;7.77;;;2.63;;
68432;SDS011;55412;51.350;17.056;2023-01-04T10:36:56;12.18;;;2.85;;
68432;SDS011;55412;51.350;17.056;2023-01-04T10:39:37;7.60;;;2.33;;
68432;SDS011;55412;51.350;17.056;2023-01-04T10:42:09;8.45;;;2.17;;
68432;SDS011;55412;51.350;17.056;2023-01-04T10:45:12;7.30;;;2.37;;
68432;SDS011;55412;51.350;17.056;2023-01-04T10:48:06;5.43;;;1.55;;
68432;SDS011;55412;51.350;17.056;2023-01-04T10:50:55;14.57;;;2.70;;
68432;SDS011;55412;51.350;17.056;2023-01-04T10:59:09;5.33;;;1.67;;
68432;SDS011;55412;51.350;17.056;2023-01-04T11:01:59;5.38;;;1.17;;
68432;SDS011;55412;51.350;17.056;2023-01-04T11:04:51;4.93;;;1.65;;
68432;SDS011;55412;51.350;17.056;2023-01-04T11:10:01;4.95;;;1.00;;
68432;SDS011;55412;51.350;17.056;2023-01-04T11:12:33;8.73;;;1.47;;
68432;SDS011;55412;51.350;17.056;2023-01-04T11:14:59;5.38;;;1.05;;
68432;SDS011;55412;51.350;17.056;2023-01-04T11:17:25;7.53;;;0.95;;
68432;SDS011;55412;51.350;17.056;2023-01-04T11:19:52;5.20;;;1.20;;
68432;SDS011;55412;51.350;17.056;2023-01-04T11:24:55;5.00;;;1.30;;
68432;SDS011;55412;51.350;17.056;2023-01-04T11:27:29;13.30;;;1.05;;
68432;SDS011;55412;51.350;17.056;2023-01-04T11:30:09;4.18;;;1.00;;
68432;SDS011;55412;51.350;17.056;2023-01-04T11:35:46;7.40;;;1.35;;
68432;SDS011;55412;51.350;17.056;2023-01-04T11:38:17;6.07;;;1.53;;
68432;SDS011;55412;51.350;17.056;2023-01-04T11:41:01;5.63;;;0.93;;
68432;SDS011;55412;51.350;17.056;2023-01-04T11:43:35;5.47;;;1.30;;
68432;SDS011;55412;51.350;17.056;2023-01-04T11:46:20;4.05;;;1.20;;
68432;SDS011;55412;51.350;17.056;2023-01-04T11:48:51;5.95;;;0.82;;
68432;SDS011;55412;51.350;17.056;2023-01-04T11:54:03;3.72;;;0.77;;
68432;SDS011;55412;51.350;17.056;2023-01-04T11:56:39;4.45;;;1.63;;
68432;SDS011;55412;51.350;17.056;2023-01-04T11:59:34;4.60;;;1.00;;
68432;SDS011;55412;51.350;17.056;2023-01-04T12:02:22;3.45;;;0.93;;
68432;SDS011;55412;51.350;17.056;2023-01-04T12:04:50;3.80;;;1.00;;
68432;SDS011;55412;51.350;17.056;2023-01-04T12:07:24;5.25;;;1.45;;
68432;SDS011;55412;51.350;17.056;2023-01-04T12:10:05;4.18;;;1.02;;
68432;SDS011;55412;51.350;17.056;2023-01-04T12:12:57;7.85;;;1.30;;
68432;SDS011;55412;51.350;17.056;2023-01-04T12:15:35;5.35;;;1.00;;
68432;SDS011;55412;51.350;17.056;2023-01-04T12:21:04;3.28;;;0.70;;
68432;SDS011;55412;51.350;17.056;2023-01-04T12:23:31;4.57;;;0.90;;
68432;SDS011;55412;51.350;17.056;2023-01-04T12:25:58;4.38;;;0.93;;
68432;SDS011;55412;51.350;17.056;2023-01-04T12:28:32;6.05;;;1.25;;
68432;SDS011;55412;51.350;17.056;2023-01-04T12:34:45;5.28;;;1.05;;
68432;SDS011;55412;51.350;17.056;2023-01-04T12:50:22;4.28;;;0.90;;
68432;SDS011;55412;51.350;17.056;2023-01-04T12:52:52;3.75;;;0.90;;
68432;SDS011;55412;51.350;17.056;2023-01-04T12:57:56;4.57;;;1.07;;
68432;SDS011;55412;51.350;17.056;2023-01-04T13:05:58;3.85;;;0.95;;
68432;SDS011;55412;51.350;17.056;2023-01-04T13:08:28;3.73;;;0.80;;
68432;SDS011;55412;51.350;17.056;2023-01-04T13:10:59;4.00;;;1.00;;
68432;SDS011;55412;51.350;17.056;2023-01-04T13:19:43;4.00;;;1.02;;
68432;SDS011;55412;51.350;17.056;2023-01-04T13:22:17;5.80;;;0.80;;
68432;SDS011;55412;51.350;17.056;2023-01-04T13:24:54;5.00;;;0.93;;
68432;SDS011;55412;51.350;17.056;2023-01-04T13:27:22;8.52;;;1.20;;
68432;SDS011;55412;51.350;17.056;2023-01-04T13:29:50;5.00;;;0.82;;
68432;SDS011;55412;51.350;17.056;2023-01-04T13:32:23;5.43;;;1.35;;
68432;SDS011;55412;51.350;17.056;2023-01-04T13:35:11;7.00;;;1.20;;
68432;SDS011;55412;51.350;17.056;2023-01-04T13:40:18;3.80;;;0.70;;
68432;SDS011;55412;51.350;17.056;2023-01-04T13:48:44;3.83;;;0.83;;
68432;SDS011;55412;51.350;17.056;2023-01-04T13:51:15;2.88;;;0.50;;
68432;SDS011;55412;51.350;17.056;2023-01-04T13:53:51;3.78;;;0.77;;
68432;SDS011;55412;51.350;17.056;2023-01-04T13:56:20;2.67;;;0.50;;
68432;SDS011;55412;51.350;17.056;2023-01-04T13:58:50;4.72;;;0.80;;
68432;SDS011;55412;51.350;17.056;2023-01-04T14:01:20;5.80;;;0.53;;
68432;SDS011;55412;51.350;17.056;2023-01-04T14:03:52;3.15;;;0.70;;
68432;SDS011;55412;51.350;17.056;2023-01-04T14:06:40;3.58;;;0.93;;
68432;SDS011;55412;51.350;17.056;2023-01-04T14:17:18;3.85;;;0.82;;
68432;SDS011;55412;51.350;17.056;2023-01-04T14:33:31;3.72;;;0.63;;
68432;SDS011;55412;51.350;17.056;2023-01-04T14:38:35;7.00;;;1.23;;
68432;SDS011;55412;51.350;17.056;2023-01-04T14:41:19;4.10;;;1.08;;
68432;SDS011;55412;51.350;17.056;2023-01-04T14:46:29;3.60;;;0.82;;
68432;SDS011;55412;51.350;17.056;2023-01-04T14:48:57;3.08;;;0.60;;
68432;SDS011;55412;51.350;17.056;2023-01-04T14:52:07;5.03;;;0.80;;
68432;SDS011;55412;51.350;17.056;2023-01-04T14:54:22;3.63;;;0.80;;
68432;SDS011;55412;51.350;17.056;2023-01-04T14:56:54;3.45;;;0.80;;
68432;SDS011;55412;51.350;17.056;2023-01-04T14:59:22;13.07;;;1.38;;
68432;SDS011;55412;51.350;17.056;2023-01-04T15:01:49;4.25;;;0.93;;
68432;SDS011;55412;51.350;17.056;2023-01-04T15:04:16;4.20;;;1.13;;
68432;SDS011;55412;51.350;17.056;2023-01-04T15:06:46;3.30;;;0.77;;
68432;SDS011;55412;51.350;17.056;2023-01-04T15:09:18;3.97;;;0.95;;
68432;SDS011;55412;51.350;17.056;2023-01-04T15:11:44;4.10;;;0.93;;
68432;SDS011;55412;51.350;17.056;2023-01-04T15:14:10;4.57;;;1.10;;
68432;SDS011;55412;51.350;17.056;2023-01-04T15:16:37;5.37;;;1.00;;
68432;SDS011;55412;51.350;17.056;2023-01-04T15:19:03;3.83;;;1.10;;
68432;SDS011;55412;51.350;17.056;2023-01-04T15:21:29;4.28;;;1.13;;
68432;SDS011;55412;51.350;17.056;2023-01-04T15:23:55;6.68;;;1.17;;
68432;SDS011;55412;51.350;17.056;2023-01-04T15:26:21;5.80;;;1.40;;
68432;SDS011;55412;51.350;17.056;2023-01-04T15:28:47;4.13;;;1.03;;
68432;SDS011;55412;51.350;17.056;2023-01-04T15:31:13;4.22;;;1.25;;
68432;SDS011;55412;51.350;17.056;2023-01-04T15:33:39;6.28;;;1.13;;
68432;SDS011;55412;51.350;17.056;2023-01-04T15:36:07;4.82;;;1.30;;
68432;SDS011;55412;51.350;17.056;2023-01-04T15:38:38;5.83;;;1.50;;
68432;SDS011;55412;51.350;17.056;2023-01-04T15:41:05;4.90;;;1.23;;
68432;SDS011;55412;51.350;17.056;2023-01-04T15:43:57;6.35;;;2.08;;
68432;SDS011;55412;51.350;17.056;2023-01-04T15:46:23;5.47;;;1.50;;
68432;SDS011;55412;51.350;17.056;2023-01-04T15:48:49;5.13;;;1.33;;
68432;SDS011;55412;51.350;17.056;2023-01-04T15:51:15;5.27;;;1.60;;
68432;SDS011;55412;51.350;17.056;2023-01-04T15:53:41;5.13;;;1.02;;
68432;SDS011;55412;51.350;17.056;2023-01-04T15:56:09;5.70;;;1.48;;
68432;SDS011;55412;51.350;17.056;2023-01-04T15:58:36;6.72;;;1.73;;
68432;SDS011;55412;51.350;17.056;2023-01-04T16:01:07;6.72;;;1.95;;
68432;SDS011;55412;51.350;17.056;2023-01-04T16:03:38;6.47;;;2.10;;
68432;SDS011;55412;51.350;17.056;2023-01-04T16:06:08;6.03;;;1.67;;
68432;SDS011;55412;51.350;17.056;2023-01-04T16:08:38;6.10;;;1.27;;
68432;SDS011;55412;51.350;17.056;2023-01-04T16:13:38;5.15;;;1.70;;
68432;SDS011;55412;51.350;17.056;2023-01-04T16:16:04;5.97;;;2.07;;
68432;SDS011;55412;51.350;17.056;2023-01-04T16:18:31;7.10;;;1.23;;
68432;SDS011;55412;51.350;17.056;2023-01-04T16:20:58;5.78;;;1.60;;
68432;SDS011;55412;51.350;17.056;2023-01-04T16:23:24;4.40;;;1.35;;
68432;SDS011;55412;51.350;17.056;2023-01-04T16:26:01;4.60;;;1.60;;
68432;SDS011;55412;51.350;17.056;2023-01-04T16:28:36;5.40;;;1.70;;
68432;SDS011;55412;51.350;17.056;2023-01-04T16:31:02;5.10;;;1.33;;
68432;SDS011;55412;51.350;17.056;2023-01-04T16:33:30;6.13;;;1.45;;
68432;SDS011;55412;51.350;17.056;2023-01-04T16:36:07;7.63;;;1.75;;
68432;SDS011;55412;51.350;17.056;2023-01-04T16:38:36;5.28;;;1.70;;
68432;SDS011;55412;51.350;17.056;2023-01-04T16:41:06;5.20;;;1.60;;
68432;SDS011;55412;51.350;17.056;2023-01-04T16:43:44;5.63;;;1.23;;
68432;SDS011;55412;51.350;17.056;2023-01-04T16:46:21;4.95;;;1.60;;
68432;SDS011;55412;51.350;17.056;2023-01-04T16:51:28;6.32;;;1.67;;
68432;SDS011;55412;51.350;17.056;2023-01-04T16:53:57;4.80;;;1.10;;
68432;SDS011;55412;51.350;17.056;2023-01-04T16:56:25;5.53;;;1.30;;
68432;SDS011;55412;51.350;17.056;2023-01-04T16:58:52;5.28;;;1.67;;
68432;SDS011;55412;51.350;17.056;2023-01-04T17:01:25;4.85;;;1.27;;
68432;SDS011;55412;51.350;17.056;2023-01-04T17:03:56;5.88;;;1.65;;
68432;SDS011;55412;51.350;17.056;2023-01-04T17:06:25;4.70;;;1.47;;
68432;SDS011;55412;51.350;17.056;2023-01-04T17:08:55;3.97;;;1.17;;
68432;SDS011;55412;51.350;17.056;2023-01-04T17:11:24;8.75;;;1.67;;
68432;SDS011;55412;51.350;17.056;2023-01-04T17:13:53;7.15;;;1.73;;
68432;SDS011;55412;51.350;17.056;2023-01-04T17:16:20;4.28;;;1.20;;
68432;SDS011;55412;51.350;17.056;2023-01-04T17:18:47;4.87;;;1.40;;
68432;SDS011;55412;51.350;17.056;2023-01-04T17:21:15;7.82;;;1.17;;
68432;SDS011;55412;51.350;17.056;2023-01-04T17:23:45;7.22;;;2.45;;
68432;SDS011;55412;51.350;17.056;2023-01-04T17:26:17;6.03;;;2.00;;
68432;SDS011;55412;51.350;17.056;2023-01-04T17:28:49;5.43;;;1.90;;